Map

Track Data

SID SEASON NUMBER BASIN SUBBASIN NAME ISO_TIME NATURE LAT LON WMO_WIND WMO_PRES WMO_AGENCY TRACK_TYPE DIST2LAND LANDFALL IFLAG USA_AGENCY USA_ATCF_ID USA_LAT USA_LON USA_RECORD USA_STATUS USA_WIND USA_PRES USA_SSHS USA_R34_NE USA_R34_SE USA_R34_SW USA_R34_NW USA_R50_NE USA_R50_SE USA_R50_SW USA_R50_NW USA_R64_NE USA_R64_SE USA_R64_SW USA_R64_NW USA_POCI USA_ROCI USA_RMW USA_EYE TOKYO_LAT TOKYO_LON TOKYO_GRADE TOKYO_WIND TOKYO_PRES TOKYO_R50_DIR TOKYO_R50_LONG TOKYO_R50_SHORT TOKYO_R30_DIR TOKYO_R30_LONG TOKYO_R30_SHORT TOKYO_LAND CMA_LAT CMA_LON CMA_CAT CMA_WIND CMA_PRES HKO_LAT HKO_LON HKO_CAT HKO_WIND HKO_PRES NEWDELHI_LAT NEWDELHI_LON NEWDELHI_GRADE NEWDELHI_WIND NEWDELHI_PRES NEWDELHI_CI NEWDELHI_DP NEWDELHI_POCI REUNION_LAT REUNION_LON REUNION_TYPE REUNION_WIND REUNION_PRES REUNION_TNUM REUNION_CI REUNION_RMW REUNION_R34_NE REUNION_R34_SE REUNION_R34_SW REUNION_R34_NW REUNION_R50_NE REUNION_R50_SE REUNION_R50_SW REUNION_R50_NW REUNION_R64_NE REUNION_R64_SE REUNION_R64_SW REUNION_R64_NW BOM_LAT BOM_LON BOM_TYPE BOM_WIND BOM_PRES BOM_TNUM BOM_CI BOM_RMW BOM_R34_NE BOM_R34_SE BOM_R34_SW BOM_R34_NW BOM_R50_NE BOM_R50_SE BOM_R50_SW BOM_R50_NW BOM_R64_NE BOM_R64_SE BOM_R64_SW BOM_R64_NW BOM_ROCI BOM_POCI BOM_EYE BOM_POS_METHOD BOM_PRES_METHOD NADI_LAT NADI_LON NADI_CAT NADI_WIND NADI_PRES WELLINGTON_LAT WELLINGTON_LON WELLINGTON_WIND WELLINGTON_PRES DS824_LAT DS824_LON DS824_STAGE DS824_WIND DS824_PRES TD9636_LAT TD9636_LON TD9636_STAGE TD9636_WIND TD9636_PRES TD9635_LAT TD9635_LON TD9635_WIND TD9635_PRES TD9635_ROCI NEUMANN_LAT NEUMANN_LON NEUMANN_CLASS NEUMANN_WIND NEUMANN_PRES MLC_LAT MLC_LON MLC_CLASS MLC_WIND MLC_PRES USA_GUST BOM_GUST BOM_GUST_PER REUNION_GUST REUNION_GUST_PER USA_SEAHGT USA_SEARAD_NE USA_SEARAD_SE USA_SEARAD_SW USA_SEARAD_NW STORM_SPEED STORM_DIR
1937038S12065 1937 6 SI MM NOT_NAMED 1937-02-06 18:00:00 NR -12.0000 64.8000 main 1181 1164 __________O___ -1 -12.0000 64.8000 7 4 171
1937038S12065 1937 6 SI MM NOT_NAMED 1937-02-06 21:00:00 NR -12.1953 64.8452 main 1164 1154 __________P___ -1 -12.1953 64.8452 7 4 168
1937038S12065 1937 6 SI MM NOT_NAMED 1937-02-07 00:00:00 NR -12.4025 64.8823 main 1154 1137 __________P___ -1 -12.4025 64.8823 7 4 172
1937038S12065 1937 6 SI MM NOT_NAMED 1937-02-07 03:00:00 NR -12.6334 64.9033 main 1137 1112 __________P___ -1 -12.6334 64.9033 7 5 0
1937038S12065 1937 6 SI MM NOT_NAMED 1937-02-07 06:00:00 TS -12.9000 64.9000 main 1112 1088 _________OO___ -1 -12.9000 64.9000 TC 35 -12.9000 64.9000 2 6 185
1937038S12065 1937 6 SI MM NOT_NAMED 1937-02-07 09:00:00 TS -13.2006 64.8626 main 1088 1056 _________PP___ -1 -13.1850 64.8525 TC 35 -13.2084 64.8676 2 6 188
1937038S12065 1937 6 SI MM NOT_NAMED 1937-02-07 12:00:00 TS -13.5243 64.8087 main 1056 1032 _________OP___ -1 -13.5000 64.8000 TC 35 -13.5425 64.8152 2 7 189
1937038S12065 1937 6 SI MM NOT_NAMED 1937-02-07 15:00:00 TS -13.8689 64.7488 main 1017 994 _________PP___ -1 -13.8575 64.7425 TC 35 -13.8803 64.7551 2 7 189
1937038S12065 1937 6 SI MM NOT_NAMED 1937-02-07 18:00:00 TS -14.2000 64.7000 main 994 971 _________OO___ -1 -14.2000 64.7000 TC 35 -14.2000 64.7000 2 6 185
1937038S12065 1937 6 SI MM NOT_NAMED 1937-02-07 21:00:00 TS -14.4642 64.6859 main 971 957 _________PP___ -1 -14.4650 64.6999 TC 35 -14.4634 64.6718 2 5 0
1937038S12065 1937 6 SI MM NOT_NAMED 1937-02-08 00:00:00 TS -14.7037 64.6749 main 957 934 _________OP___ -1 -14.7000 64.7000 TC 35 -14.7075 64.6498 2 5 185
1937038S12065 1937 6 SI MM NOT_NAMED 1937-02-08 03:00:00 TS -14.9451 64.6428 main 934 913 _________PP___ -1 -14.9425 64.6575 TC 35 -14.9478 64.6280 2 5 187
1937038S12065 1937 6 SI MM NOT_NAMED 1937-02-08 06:00:00 TS -15.2000 64.6000 main 913 893 _________OO___ -1 -15.2000 64.6000 TC 35 -15.2000 64.6000 2 6 189
1937038S12065 1937 6 SI MM NOT_NAMED 1937-02-08 09:00:00 TS -15.4891 64.5536 main 893 865 _________PP___ -1 -15.4925 64.5500 TC 35 -15.4856 64.5572 2 6 188
1937038S12065 1937 6 SI MM NOT_NAMED 1937-02-08 12:00:00 TS -15.7925 64.5038 main 865 846 _________OP___ -1 -15.8000 64.5000 TC 35 -15.7850 64.5075 2 6 189
1937038S12065 1937 6 SI MM NOT_NAMED 1937-02-08 15:00:00 TS -16.0959 64.4520 main 846 819 _________PP___ -1 -16.1000 64.4500 TC 35 -16.0919 64.4541 2 6 189
1937038S12065 1937 6 SI MM NOT_NAMED 1937-02-08 18:00:00 TS -16.4000 64.4000 main 819 802 _________OO___ -1 -16.4000 64.4000 TC 35 -16.4000 64.4000 2 6 189
1937038S12065 1937 6 SI MM NOT_NAMED 1937-02-08 21:00:00 TS -16.7000 64.3500 main 793 777 _________PP___ -1 -16.7000 64.3500 TC 35 -16.7000 64.3500 2 6 189
1937038S12065 1937 6 SI MM NOT_NAMED 1937-02-09 00:00:00 TS -17.0000 64.3000 main 777 761 _________OP___ -1 -17.0000 64.3000 TC 35 -17.0000 64.2999 2 6 189
1937038S12065 1937 6 SI MM NOT_NAMED 1937-02-09 03:00:00 TS -17.3000 64.2500 main 752 737 _________PP___ -1 -17.3000 64.2500 TC 35 -17.3000 64.2499 2 6 189
1937038S12065 1937 6 SI MM NOT_NAMED 1937-02-09 06:00:00 TS -17.6000 64.2000 main 737 724 _________OO___ -1 -17.6000 64.2000 TC 35 -17.6000 64.2000 2 6 189
1937038S12065 1937 6 SI MM NOT_NAMED 1937-02-09 09:00:00 TS -17.9020 64.1520 main 724 701 _________PP___ -1 -17.9000 64.1500 TC 35 -17.9040 64.1540 2 6 188
1937038S12065 1937 6 SI MM NOT_NAMED 1937-02-09 12:00:00 TS -18.2037 64.1037 main 701 690 _________OP___ -1 -18.2000 64.1000 TC 35 -18.2075 64.1074 2 6 189
1937038S12065 1937 6 SI MM NOT_NAMED 1937-02-09 15:00:00 TS -18.5036 64.0535 main 690 670 _________PP___ -1 -18.5000 64.0500 TC 35 -18.5072 64.0571 2 6 189
1937038S12065 1937 6 SI MM NOT_NAMED 1937-02-09 18:00:00 TS -18.8000 64.0000 main 670 662 _________OO___ -1 -18.8000 64.0000 TC 35 -18.8000 64.0000 2 6 187
1937038S12065 1937 6 SI MM NOT_NAMED 1937-02-09 21:00:00 TS -19.0946 63.9729 main 662 645 _________PP___ -1 -19.1075 63.9575 TC 35 -19.0818 63.9883 2 6 187
1937038S12065 1937 6 SI MM NOT_NAMED 1937-02-10 00:00:00 TS -19.3784 63.9307 main 645 642 _________OP___ -1 -19.4000 63.9000 TC 35 -19.3568 63.9613 2 6 191
1937038S12065 1937 6 SI MM NOT_NAMED 1937-02-10 03:00:00 TS -19.6391 63.8655 main 642 617 _________PP___ -1 -19.6498 63.8522 TC 35 -19.6284 63.8787 2 6 203
1937038S12065 1937 6 SI MM NOT_NAMED 1937-02-10 06:00:00 TS -19.9000 63.7000 main 617 584 _________OO___ -1 -19.9000 63.7000 TC 35 -19.9000 63.7000 2 7 221
1937038S12065 1937 6 SI MM NOT_NAMED 1937-02-10 09:00:00 TS -20.1898 63.3664 main 584 542 _________PP___ -1 -20.2001 63.3526 TC 35 -20.1795 63.3801 2 9 231
1937038S12065 1937 6 SI MM NOT_NAMED 1937-02-10 12:00:00 TS -20.4790 62.9315 main 531 491 _________OP___ -1 -20.5000 62.9000 TC 35 -20.4581 62.9630 2 10 236
1937038S12065 1937 6 SI MM NOT_NAMED 1937-02-10 15:00:00 TS -20.7450 62.4733 main 491 443 _________PP___ -1 -20.7574 62.4573 TC 35 -20.7325 62.4893 2 10 239
1937038S12065 1937 6 SI MM NOT_NAMED 1937-02-10 18:00:00 TS -21.0000 62.0000 main 443 407 _________OO___ -1 -21.0000 62.0000 TC 35 -21.0000 62.0000 2 10 240
1937038S12065 1937 6 SI MM NOT_NAMED 1937-02-10 21:00:00 TS -21.2577 61.5393 main 400 368 _________PP___ -1 -21.2499 61.5498 TC 35 -21.2655 61.5288 2 10 239
1937038S12065 1937 6 SI MM NOT_NAMED 1937-02-11 00:00:00 TS -21.5114 61.0776 main 368 329 _________OP___ -1 -21.5000 61.1000 TC 35 -21.5228 61.0551 2 10 240
1937038S12065 1937 6 SI MM NOT_NAMED 1937-02-11 03:00:00 TS -21.7631 60.6157 main 333 308 _________PP___ -1 -21.7575 60.6275 TC 35 -21.7687 60.6039 2 10 239
1937038S12065 1937 6 SI MM NOT_NAMED 1937-02-11 06:00:00 TS -22.0000 60.2000 main 308 296 _________OO___ -1 -22.0000 60.2000 TC 35 -22.0000 60.2000 2 8 237
1937038S12065 1937 6 SI MM NOT_NAMED 1937-02-11 09:00:00 TS -22.2085 59.8658 main 296 288 _________PP___ -1 -22.2073 59.8698 TC 35 -22.2098 59.8618 2 7 235
1937038S12065 1937 6 SI MM NOT_NAMED 1937-02-11 12:00:00 TS -22.4034 59.5871 main 289 282 _________OP___ -1 -22.4000 59.6000 TC 35 -22.4068 59.5742 2 6 232
1937038S12065 1937 6 SI MM NOT_NAMED 1937-02-11 15:00:00 TS -22.6002 59.3297 main 287 287 _________PP___ -1 -22.6000 59.3349 TC 35 -22.6005 59.3245 2 6 229
1937038S12065 1937 6 SI MM NOT_NAMED 1937-02-11 18:00:00 TS -22.8000 59.1000 main 295 295 _________OO___ -1 -22.8000 59.1000 TC 35 -22.8000 59.1000 2 6 225
1937038S12065 1937 6 SI MM NOT_NAMED 1937-02-11 21:00:00 TS -23.0030 58.8872 main 305 301 _________PP___ -1 -22.9924 58.8924 TC 35 -23.0135 58.8821 2 6 222
1937038S12065 1937 6 SI MM NOT_NAMED 1937-02-12 00:00:00 TS -23.2173 58.6922 main 319 319 _________OP___ -1 -23.2000 58.7000 TC 35 -23.2346 58.6844 2 6 218
1937038S12065 1937 6 SI MM NOT_NAMED 1937-02-12 03:00:00 TS -23.4530 58.5010 main 345 343 _________PP___ -1 -23.4424 58.5074 TC 35 -23.4635 58.4946 2 6 217
1937038S12065 1937 6 SI MM NOT_NAMED 1937-02-12 06:00:00 TS -23.7000 58.3000 main 363 363 _________OO___ -1 -23.7000 58.3000 TC 35 -23.7000 58.3000 2 6 219
1937038S12065 1937 6 SI MM NOT_NAMED 1937-02-12 09:00:00 TS -23.9485 58.0600 main 374 374 _________PP___ -1 -23.9500 58.0500 TC 35 -23.9469 58.0701 2 7 221
1937038S12065 1937 6 SI MM NOT_NAMED 1937-02-12 12:00:00 TS -24.2001 57.8176 main 383 383 _________OP___ -1 -24.2000 57.8000 TC 35 -24.2001 57.8351 2 7 220
1937038S12065 1937 6 SI MM NOT_NAMED 1937-02-12 15:00:00 TS -24.4553 57.5963 main 402 397 _________PP___ -1 -24.4575 57.5850 TC 35 -24.4532 57.6076 2 6 217
1937038S12065 1937 6 SI MM NOT_NAMED 1937-02-12 18:00:00 TS -24.7000 57.4000 main 412 412 _________OO___ -1 -24.7000 57.4000 TC 35 -24.7000 57.4000 2 6 215
1937038S12065 1937 6 SI MM NOT_NAMED 1937-02-12 21:00:00 TS -24.9201 57.2332 main 424 424 _________PP___ -1 -24.9000 57.2424 TC 35 -24.9402 57.2241 2 5 213
1937038S12065 1937 6 SI MM NOT_NAMED 1937-02-13 00:00:00 TS -25.1362 57.0848 main 441 441 _________OP___ -1 -25.1000 57.1000 TC 35 -25.1723 57.0697 2 5 211
1937038S12065 1937 6 SI MM NOT_NAMED 1937-02-13 03:00:00 TS -25.3717 56.9365 main 466 466 _________PP___ -1 -25.3500 56.9425 TC 35 -25.3933 56.9304 2 5 209
1937038S12065 1937 6 SI MM NOT_NAMED 1937-02-13 06:00:00 TS -25.6000 56.8000 main 485 485 _________OO___ -1 -25.6000 56.8000 TC 35 -25.6000 56.8000 2 5 209
1937038S12065 1937 6 SI MM NOT_NAMED 1937-02-13 09:00:00 TS -25.7940 56.6757 main 504 502 _________PP___ -1 -25.8150 56.6999 TC 35 -25.7731 56.6514 2 4 211
1937038S12065 1937 6 SI MM NOT_NAMED 1937-02-13 12:00:00 TS -25.9675 56.5562 main 524 522 _________OP___ -1 -26.0000 56.6000 TC 35 -25.9350 56.5124 2 4 215
1937038S12065 1937 6 SI MM NOT_NAMED 1937-02-13 15:00:00 TS -26.1235 56.4173 main 531 531 _________PP___ -1 -26.1425 56.4425 TC 35 -26.1044 56.3921 2 4 215
1937038S12065 1937 6 SI MM NOT_NAMED 1937-02-13 18:00:00 TS -26.3000 56.3000 main 552 552 _________OO___ -1 -26.3000 56.3000 TC 35 -26.3000 56.3000 2 4 210
1937038S12065 1937 6 SI MM NOT_NAMED 1937-02-13 21:00:00 TS -26.4757 56.1941 main 573 573 _________PP___ -1 -26.5275 56.2275 TC 35 -26.4239 56.1608 2 4 201
1937038S12065 1937 6 SI MM NOT_NAMED 1937-02-14 00:00:00 TS -26.6971 56.1311 main 594 594 _________OP___ -1 -26.8000 56.2000 TC 35 -26.5941 56.0621 2 5 191
1937038S12065 1937 6 SI MM NOT_NAMED 1937-02-14 03:00:00 TS -26.9323 56.0992 main 616 616 _________PP___ -1 -26.9724 56.1412 TC 35 -26.8922 56.0572 2 7 175
1937038S12065 1937 6 SI MM NOT_NAMED 1937-02-14 06:00:00 TS -27.4000 56.2000 main 673 673 _________OO___ -1 -27.4000 56.2000 TC 35 -27.4000 56.2000 2 14 166
1937038S12065 1937 6 SI MM NOT_NAMED 1937-02-14 09:00:00 TS -28.3263 56.4878 main 776 776 _________PP___ -1 -28.4022 56.4452 TC 35 -28.2503 56.5303 2 22 162
1937038S12065 1937 6 SI MM NOT_NAMED 1937-02-14 12:00:00 TS -29.4503 56.9597 main 915 915 _________OP___ -1 -29.6000 56.9000 TC 35 -29.3006 57.0194 2 24 156
1937038S12065 1937 6 SI MM NOT_NAMED 1937-02-14 15:00:00 TS -30.5103 57.5860 main 1035 1035 _________PP___ -1 -30.5953 57.5472 TC 35 -30.4254 57.6247 2 24 151
1937038S12065 1937 6 SI MM NOT_NAMED 1937-02-14 18:00:00 TS -31.5000 58.3000 main 1159 1159 _________OO___ -1 -31.5000 58.3000 TC 35 -31.5000 58.3000 2 22 147
1937038S12065 1937 6 SI MM NOT_NAMED 1937-02-14 21:00:00 TS -32.3839 59.0168 main 1273 1273 _________PP___ -1 -32.3294 58.9942 TC 35 -32.4383 59.0394 2 21 144
1937038S12065 1937 6 SI MM NOT_NAMED 1937-02-15 00:00:00 TS -33.1966 59.7622 main 1380 1380 _________OP___ -1 -33.1000 59.7000 TC 35 -33.2933 59.8243 2 21 141
1937038S12065 1937 6 SI MM NOT_NAMED 1937-02-15 03:00:00 TS -33.9834 60.5444 main 1486 1486 _________PP___ -1 -33.9407 60.5156 TC 35 -34.0262 60.5732 2 18 140
1937038S12065 1937 6 SI MM NOT_NAMED 1937-02-15 06:00:00 TS -34.6000 61.2000 main 1571 1571 _________OO___ -1 -34.6000 61.2000 TC 35 -34.6000 61.2000 2 13 138
1937038S12065 1937 6 SI MM NOT_NAMED 1937-02-15 09:00:00 TS -34.9189 61.5553 main 1616 1616 _________PP___ -1 -34.8741 61.5275 TC 35 -34.9637 61.5830 2 7 137
1937038S12065 1937 6 SI MM NOT_NAMED 1937-02-15 12:00:00 TS -35.0906 61.7652 main 1630 1603 _________OP___ -1 -35.0000 61.7000 TC 35 -35.1812 61.8304 2 5 136
1937038S12065 1937 6 SI MM NOT_NAMED 1937-02-15 15:00:00 TS -35.2803 61.9774 main 1603 1576 _________PP___ -1 -35.2274 61.9428 TC 35 -35.3333 62.0121 2 5 139
1937038S12065 1937 6 SI MM NOT_NAMED 1937-02-15 18:00:00 TS -35.5000 62.2000 main 1576 1536 _________OO___ -1 -35.5000 62.2000 TC 35 -35.5000 62.2000 2 7 142
1937038S12065 1937 6 SI MM NOT_NAMED 1937-02-15 21:00:00 TS -35.8171 62.4844 main 1536 1496 _________PP___ -1 -35.8424 62.4850 TC 35 -35.7918 62.4838 2 8 144
1937038S12065 1937 6 SI MM NOT_NAMED 1937-02-16 00:00:00 TS -36.1559 62.7956 main 1485 1446 _________OP___ -1 -36.2000 62.8000 TC 35 -36.1118 62.7912 2 8 142
1937038S12065 1937 6 SI MM NOT_NAMED 1937-02-16 03:00:00 TS -36.4754 63.1280 main 1446 1403 _________PP___ -1 -36.4998 63.1281 TC 35 -36.4510 63.1280 2 9 139
1937038S12065 1937 6 SI MM NOT_NAMED 1937-02-16 06:00:00 TS -36.8000 63.5000 main 1403 1361 _________OO___ -1 -36.8000 63.5000 TC 35 -36.8000 63.5000 2 9 136
1937038S12065 1937 6 SI MM NOT_NAMED 1937-02-16 09:00:00 TS -37.1448 63.9266 main 1361 1307 _________PP___ -1 -37.1425 63.9351 TC 35 -37.1471 63.9181 2 10 135
1937038S12065 1937 6 SI MM NOT_NAMED 1937-02-16 12:00:00 TS -37.5001 64.3850 main 1307 1266 _________OP___ -1 -37.5000 64.4000 TC 35 -37.5003 64.3700 2 10 134
1937038S12065 1937 6 SI MM NOT_NAMED 1937-02-16 15:00:00 TS -37.8516 64.8474 main 1255 1213 _________PP___ -1 -37.8499 64.8578 TC 35 -37.8533 64.8370 2 10 134
1937038S12065 1937 6 SI MM NOT_NAMED 1937-02-16 18:00:00 TS -38.2000 65.3000 main 1213 1173 _________OO___ -1 -38.2000 65.3000 TC 35 -38.2000 65.3000 2 10 135
1937038S12065 1937 6 SI MM NOT_NAMED 1937-02-16 21:00:00 TS -38.5467 65.7221 main 1173 1122 _________PP___ -1 -38.5572 65.7005 TC 35 -38.5361 65.7437 2 9 136
1937038S12065 1937 6 SI MM NOT_NAMED 1937-02-17 00:00:00 TS -38.8815 66.1352 main 1122 1084 _________OP___ -1 -38.9000 66.1000 TC 35 -38.8631 66.1705 2 9 135
1937038S12065 1937 6 SI MM NOT_NAMED 1937-02-17 03:00:00 TS -39.1970 66.5618 main 1082 1044 _________PP___ -1 -39.2105 66.5367 TC 35 -39.1835 66.5869 2 9 133
1937038S12065 1937 6 SI MM NOT_NAMED 1937-02-17 06:00:00 TS -39.5000 67.0000 main 1044 _________OO___ -1 -39.5000 67.0000 TC 35 -39.5000 67.0000 2 9 132

About IBTrACS Database

This database is a web-friendly format of International Best Track Archive for Climate Stewardship (IBTrACS), a global best track data archive curated by NOAA dating back to 1842.

Updated: 2021-10-08